createdAt,value
2023-03-12T00:01:40.613Z,100272.03
2023-03-12T00:04:42.007Z,100275.47
2023-03-12T00:07:43.405Z,100278.06
2023-03-12T00:10:44.823Z,100273.69
2023-03-12T00:13:52.807Z,100269.38
2023-03-12T00:16:55.670Z,100270.19
2023-03-12T00:19:57.074Z,100266.72
2023-03-12T00:22:58.533Z,100266.75
2023-03-12T00:26:05.966Z,100278.00
2023-03-12T00:29:07.393Z,100272.78
2023-03-12T00:32:08.890Z,100267.63
2023-03-12T00:35:10.623Z,100276.25
2023-03-12T00:38:12.025Z,100265.88
2023-03-12T00:41:13.444Z,100273.69
2023-03-12T00:44:14.926Z,100264.16
2023-03-12T00:47:16.350Z,100265.94
2023-03-12T00:50:17.846Z,100255.56
2023-03-12T00:53:19.407Z,100260.72
2023-03-12T00:56:20.985Z,100272.00
2023-03-12T00:59:22.564Z,100262.47
2023-03-12T01:02:24.014Z,100263.31
2023-03-12T01:05:25.482Z,100262.47
2023-03-12T01:08:27.286Z,100256.38
2023-03-12T01:11:29.296Z,100259.84
2023-03-12T01:14:30.896Z,100255.53
2023-03-12T01:17:32.425Z,100252.06
2023-03-12T01:20:33.978Z,100252.06
2023-03-12T01:23:35.378Z,100246.91
2023-03-12T01:26:36.773Z,100259.03
2023-03-12T01:29:38.150Z,100259.03
2023-03-12T01:32:39.717Z,100268.53
2023-03-12T01:35:41.696Z,100266.84
2023-03-12T01:38:43.274Z,100271.16
2023-03-12T01:41:44.691Z,100262.47
2023-03-12T01:45:00.080Z,100259.03
2023-03-12T01:48:03.237Z,100258.16
2023-03-12T01:51:05.779Z,100263.34
2023-03-12T01:54:13.419Z,100262.47
2023-03-12T01:57:20.846Z,100252.09
2023-03-12T02:00:25.714Z,100249.50
2023-03-12T02:03:31.464Z,100238.25
2023-03-12T02:06:38.830Z,100229.59
2023-03-12T02:09:45.135Z,100229.59
2023-03-12T02:12:46.616Z,100221.78
2023-03-12T02:15:48.113Z,100223.50
2023-03-12T02:18:52.541Z,100220.91
2023-03-12T02:21:54.017Z,100231.31
2023-03-12T02:25:06.776Z,100230.44
2023-03-12T02:28:12.490Z,100222.66
2023-03-12T02:31:18.170Z,100222.66
2023-03-12T02:34:19.751Z,100221.78
2023-03-12T02:37:21.368Z,100223.50
2023-03-12T02:40:27.390Z,100222.66
2023-03-12T02:43:29.103Z,100216.59
2023-03-12T02:46:36.179Z,100219.19
2023-03-12T02:49:37.943Z,100217.47
2023-03-12T02:52:39.978Z,100210.53
2023-03-12T02:55:41.481Z,100209.69
2023-03-12T02:58:42.991Z,100210.56
2023-03-12T03:01:45.184Z,100197.56
2023-03-12T03:04:47.155Z,100204.47
2023-03-12T03:07:48.674Z,100201.91
2023-03-12T03:10:52.270Z,100193.25
2023-03-12T03:13:55.019Z,100195.81
2023-03-12T03:16:57.083Z,100194.09
2023-03-12T03:19:58.532Z,100197.56
2023-03-12T03:22:59.980Z,100194.09
2023-03-12T03:26:01.862Z,100206.19
2023-03-12T03:29:03.525Z,100205.34
2023-03-12T03:32:05.594Z,100205.34
2023-03-12T03:35:07.374Z,100204.47
2023-03-12T03:38:08.907Z,100204.44
2023-03-12T03:41:10.660Z,100201.03
2023-03-12T03:44:16.978Z,100197.53
2023-03-12T03:47:18.545Z,100201.00
2023-03-12T03:50:20.083Z,100202.72
2023-03-12T03:53:21.694Z,100208.75
2023-03-12T03:56:23.266Z,100208.78
2023-03-12T03:59:25.356Z,100210.47
2023-03-12T04:02:28.257Z,100216.53
2023-03-12T04:05:29.911Z,100221.72
2023-03-12T04:08:32.919Z,100223.47
2023-03-12T04:11:34.519Z,100213.91
2023-03-12T04:14:40.684Z,100213.94
2023-03-12T04:17:42.774Z,100212.19
2023-03-12T04:20:45.114Z,100203.47
2023-03-12T04:23:46.572Z,100195.69
2023-03-12T04:26:49.648Z,100188.78
2023-03-12T04:29:51.172Z,100194.84
2023-03-12T04:32:54.092Z,100199.16
2023-03-12T04:35:56.541Z,100213.91
2023-03-12T04:38:58.183Z,100215.66
2023-03-12T04:42:04.095Z,100217.34
2023-03-12T04:45:06.764Z,100213.03
2023-03-12T04:48:10.854Z,100219.09
2023-03-12T04:51:12.276Z,100219.06
2023-03-12T04:54:14.038Z,100208.69
2023-03-12T04:57:17.028Z,100211.31
2023-03-12T05:00:18.758Z,100199.19
2023-03-12T05:03:21.412Z,100199.19
2023-03-12T05:06:24.416Z,100198.28
2023-03-12T05:09:26.568Z,100190.47
2023-03-12T05:12:28.074Z,100197.38
2023-03-12T05:15:29.517Z,100200.91
2023-03-12T05:18:31.822Z,100203.44
2023-03-12T05:21:33.408Z,100202.53
2023-03-12T05:24:35.614Z,100198.25
2023-03-12T05:27:37.478Z,100188.72
2023-03-12T05:30:39.985Z,100189.53
2023-03-12T05:33:41.643Z,100182.63
2023-03-12T05:36:43.846Z,100185.25
2023-03-12T05:39:49.293Z,100179.16
2023-03-12T05:42:53.024Z,100173.97
2023-03-12T05:46:04.513Z,100176.56
2023-03-12T05:49:08.344Z,100174.00
2023-03-12T05:52:10.555Z,100167.06
2023-03-12T05:55:11.949Z,100167.06
2023-03-12T05:58:13.459Z,100163.59
2023-03-12T06:01:20.752Z,100163.59
2023-03-12T06:04:22.638Z,100161.03
2023-03-12T06:07:24.557Z,100166.22
2023-03-12T06:10:26.051Z,100168.88
2023-03-12T06:13:28.313Z,100163.66
2023-03-12T06:16:31.205Z,100168.84
2023-03-12T06:19:32.805Z,100174.06
2023-03-12T06:22:34.577Z,100178.44
2023-03-12T06:25:36.004Z,100170.63
2023-03-12T06:28:38.811Z,100173.22
2023-03-12T06:31:41.990Z,100175.81
2023-03-12T06:34:43.429Z,100168.88
2023-03-12T06:37:44.849Z,100166.31
2023-03-12T06:41:00.611Z,100165.44
2023-03-12T06:44:05.871Z,100174.91
2023-03-12T06:47:07.345Z,100187.91
2023-03-12T06:50:09.482Z,100167.06
2023-03-12T06:53:10.947Z,100165.38
2023-03-12T06:56:13.469Z,100178.38
2023-03-12T06:59:14.912Z,100174.88
2023-03-12T07:02:16.358Z,100179.22
2023-03-12T07:05:17.832Z,100178.34
2023-03-12T07:08:19.247Z,100187.03
2023-03-12T07:11:20.827Z,100199.09
2023-03-12T07:14:22.236Z,100201.72
2023-03-12T07:17:24.503Z,100195.63
2023-03-12T07:20:26.049Z,100194.78
2023-03-12T07:23:28.028Z,100191.28
2023-03-12T07:26:29.432Z,100190.41
2023-03-12T07:29:30.806Z,100193.06
2023-03-12T07:32:33.511Z,100188.69
2023-03-12T07:35:35.481Z,100184.41
2023-03-12T07:38:37.186Z,100196.53
2023-03-12T07:41:39.017Z,100193.88
2023-03-12T07:44:40.406Z,100199.94
2023-03-12T07:47:41.936Z,100203.44
2023-03-12T07:50:43.429Z,100200.03
2023-03-12T07:53:44.856Z,100195.72
2023-03-12T07:56:46.401Z,100194.84
2023-03-12T07:59:48.210Z,100188.78
2023-03-12T08:02:50.271Z,100182.63
2023-03-12T08:06:00.621Z,100175.72
2023-03-12T08:09:02.070Z,100176.63
2023-03-12T08:12:03.704Z,100178.34
2023-03-12T08:15:08.265Z,100181.78
2023-03-12T08:18:10.038Z,100180.91
2023-03-12T08:21:11.502Z,100190.41
2023-03-12T08:24:12.922Z,100188.59
2023-03-12T08:27:14.486Z,100192.91
2023-03-12T08:30:16.259Z,100191.97
2023-03-12T08:33:18.009Z,100194.59
2023-03-12T08:36:21.937Z,100192.84
2023-03-12T08:39:23.785Z,100191.03
2023-03-12T08:42:25.201Z,100184.94
2023-03-12T08:45:26.759Z,100183.19
2023-03-12T08:48:29.587Z,100182.34
2023-03-12T08:51:31.050Z,100185.69
2023-03-12T08:54:32.631Z,100178.78
2023-03-12T08:57:34.196Z,100184.03
2023-03-12T09:00:35.940Z,100183.16
2023-03-12T09:03:37.621Z,100188.34
2023-03-12T09:06:39.095Z,100183.97
2023-03-12T09:09:40.533Z,100185.78
2023-03-12T09:12:42.070Z,100188.34
2023-03-12T09:15:43.769Z,100195.25
2023-03-12T09:18:45.237Z,100194.34
2023-03-12T09:21:46.618Z,100197.78
2023-03-12T09:24:48.000Z,100200.41
2023-03-12T09:27:49.492Z,100209.09
2023-03-12T09:30:51.342Z,100209.13
2023-03-12T09:33:52.776Z,100209.19
2023-03-12T09:36:54.939Z,100195.25
2023-03-12T09:39:56.333Z,100203.03
2023-03-12T09:43:13.527Z,100208.19
2023-03-12T09:46:20.703Z,100202.06
2023-03-12T09:49:46.750Z,100205.47
2023-03-12T09:53:04.466Z,100211.53
2023-03-12T09:56:10.162Z,100221.88
2023-03-12T09:59:13.026Z,100228.03
2023-03-12T10:02:37.165Z,100228.03
2023-03-12T10:05:44.711Z,100227.09
2023-03-12T10:09:24.240Z,100231.38
2023-03-12T10:12:52.161Z,100236.53
2023-03-12T10:16:20.706Z,100245.97
2023-03-12T10:19:47.243Z,100237.22
2023-03-12T10:22:59.959Z,100235.44
2023-03-12T10:26:17.223Z,100244.94
2023-03-12T10:29:35.606Z,100249.22
2023-03-12T10:32:48.068Z,100239.59
2023-03-12T10:35:50.483Z,100239.38
2023-03-12T10:38:51.984Z,100243.59
2023-03-12T10:42:00.260Z,100236.44
2023-03-12T10:45:17.751Z,100234.41
2023-03-12T10:48:21.966Z,100230.91
2023-03-12T10:51:23.342Z,100238.63
2023-03-12T10:54:31.851Z,100234.06
2023-03-12T10:57:41.386Z,100230.44
2023-03-12T11:00:56.682Z,100228.56
2023-03-12T11:04:18.265Z,100225.91
2023-03-12T11:07:27.772Z,100220.59
2023-03-12T11:10:32.997Z,100221.19
2023-03-12T11:13:38.838Z,100221.13
2023-03-12T11:16:40.271Z,100213.97
2023-03-12T11:19:41.938Z,100219.28
2023-03-12T11:22:43.391Z,100223.44
2023-03-12T11:25:52.101Z,100212.63
2023-03-12T11:29:03.218Z,100216.78
2023-03-12T11:32:29.968Z,100214.38
2023-03-12T11:35:45.332Z,100210.44
2023-03-12T11:39:07.561Z,100209.28
2023-03-12T11:42:20.667Z,100208.16
2023-03-12T11:45:46.745Z,100203.47
2023-03-12T11:49:09.458Z,100203.22
2023-03-12T11:52:20.788Z,100196.81
2023-03-12T11:55:38.064Z,100190.94
2023-03-12T11:58:53.166Z,100200.78
2023-03-12T12:02:11.760Z,100196.41
2023-03-12T12:05:32.047Z,100192.56
2023-03-12T12:08:43.846Z,100182.69
2023-03-12T12:12:05.576Z,100168.22
2023-03-12T12:15:15.990Z,100163.72
2023-03-12T12:19:08.428Z,100159.44
2023-03-12T12:22:37.190Z,100162.00
2023-03-12T12:25:52.618Z,100152.75
2023-03-12T12:29:22.082Z,100140.28
2023-03-12T12:33:00.119Z,100145.19
2023-03-12T12:36:02.556Z,100130.41
2023-03-12T12:39:30.962Z,100145.25
2023-03-12T12:42:36.367Z,100144.28
2023-03-12T12:45:40.873Z,100146.25
2023-03-12T12:48:53.683Z,100137.72
2023-03-12T12:52:03.281Z,100137.19
2023-03-12T12:55:22.588Z,100141.38
2023-03-12T12:58:29.536Z,100140.41
2023-03-12T13:01:34.044Z,100131.94
2023-03-12T13:04:38.466Z,100140.28
2023-03-12T13:07:39.907Z,100127.06
2023-03-12T13:10:52.997Z,100128.88
2023-03-12T13:14:02.273Z,100127.19
2023-03-12T13:17:28.972Z,100126.56
2023-03-12T13:20:53.388Z,100111.34
2023-03-12T13:24:11.933Z,100107.69
2023-03-12T13:27:31.237Z,100108.06
2023-03-12T13:30:32.559Z,100104.00
2023-03-12T13:33:45.271Z,100100.66
2023-03-12T13:36:50.341Z,100099.38
2023-03-12T13:39:51.826Z,100080.41
2023-03-12T13:43:09.667Z,100068.09
2023-03-12T13:46:34.904Z,100073.56
2023-03-12T13:49:41.596Z,100061.75
2023-03-12T13:53:00.505Z,100069.41
2023-03-12T13:56:14.494Z,100056.94
2023-03-12T13:59:19.179Z,100047.06
2023-03-12T14:02:49.968Z,100055.06
2023-03-12T14:06:05.778Z,100055.41
2023-03-12T14:09:24.150Z,100060.72
2023-03-12T14:12:53.443Z,100070.34
2023-03-12T14:16:30.454Z,100059.94
2023-03-12T14:19:35.014Z,100063.91
2023-03-12T14:22:39.399Z,100068.41
2023-03-12T14:25:46.179Z,100073.94
2023-03-12T14:28:54.744Z,100086.72
2023-03-12T14:32:02.028Z,100070.03
2023-03-12T14:35:12.377Z,100085.91
2023-03-12T14:38:21.556Z,100088.00
2023-03-12T14:41:29.934Z,100087.78
2023-03-12T14:44:33.297Z,100077.09
2023-03-12T14:47:46.001Z,100084.78
2023-03-12T14:50:48.663Z,100072.06
2023-03-12T14:53:51.194Z,100079.63
2023-03-12T14:56:52.720Z,100077.06
2023-03-12T14:59:57.874Z,100077.22
2023-03-12T15:03:04.368Z,100073.00
2023-03-12T15:06:13.966Z,100067.06
2023-03-12T15:09:24.752Z,100070.09
2023-03-12T15:12:33.176Z,100072.38
2023-03-12T15:15:43.990Z,100066.34
2023-03-12T15:18:47.439Z,100075.06
2023-03-12T15:21:50.451Z,100064.28
2023-03-12T15:24:51.903Z,100061.34
2023-03-12T15:28:11.485Z,100065.44
2023-03-12T15:31:15.997Z,100063.34
2023-03-12T15:34:36.261Z,100066.13
2023-03-12T15:37:41.074Z,100072.34
2023-03-12T15:40:48.996Z,100065.19
2023-03-12T15:43:54.876Z,100060.38
2023-03-12T15:47:11.192Z,100056.91
2023-03-12T15:50:18.740Z,100046.22
2023-03-12T15:53:20.115Z,100040.31
2023-03-12T15:56:23.385Z,100042.88
2023-03-12T15:59:28.450Z,100045.69
2023-03-12T16:02:38.262Z,100057.28
2023-03-12T16:05:40.045Z,100068.94
2023-03-12T16:08:46.294Z,100062.38
2023-03-12T16:11:48.424Z,100066.34
2023-03-12T16:14:49.863Z,100063.56
2023-03-12T16:17:51.335Z,100067.78
2023-03-12T16:20:53.235Z,100066.91
2023-03-12T16:23:54.719Z,100071.94
2023-03-12T16:26:59.862Z,100070.00
2023-03-12T16:30:01.277Z,100071.22
2023-03-12T16:33:08.957Z,100069.09
2023-03-12T16:36:16.588Z,100073.63
2023-03-12T16:39:18.997Z,100072.88
2023-03-12T16:42:20.913Z,100065.66
2023-03-12T16:45:22.971Z,100072.13
2023-03-12T16:48:24.708Z,100066.09
2023-03-12T16:51:28.204Z,100071.50
2023-03-12T16:54:29.573Z,100074.78
2023-03-12T16:57:36.999Z,100080.53
2023-03-12T17:00:38.547Z,100078.66
2023-03-12T17:03:43.620Z,100075.63
2023-03-12T17:06:45.159Z,100080.13
2023-03-12T17:09:46.672Z,100084.72
2023-03-12T17:12:48.583Z,100082.06
2023-03-12T17:15:51.364Z,100089.78
2023-03-12T17:18:53.131Z,100095.22
2023-03-12T17:21:55.124Z,100097.13
2023-03-12T17:24:56.542Z,100093.66
2023-03-12T17:27:59.005Z,100099.69
2023-03-12T17:31:00.577Z,100106.66
2023-03-12T17:34:03.828Z,100118.16
2023-03-12T17:37:05.404Z,100119.06
2023-03-12T17:40:09.005Z,100117.72
2023-03-12T17:43:10.860Z,100117.44
2023-03-12T17:46:12.281Z,100110.63
2023-03-12T17:49:13.786Z,100121.13
2023-03-12T17:52:15.200Z,100125.00
2023-03-12T17:55:16.637Z,100123.38
2023-03-12T17:58:18.108Z,100119.44
2023-03-12T18:01:19.672Z,100125.59
2023-03-12T18:04:21.137Z,100130.28
2023-03-12T18:07:22.640Z,100132.31
2023-03-12T18:10:24.139Z,100145.00
2023-03-12T18:13:25.540Z,100142.47
2023-03-12T18:16:27.055Z,100149.63
2023-03-12T18:19:29.336Z,100151.63
2023-03-12T18:22:30.846Z,100151.09
2023-03-12T18:25:32.297Z,100145.94
2023-03-12T18:28:33.767Z,100144.59
2023-03-12T18:31:35.256Z,100147.56
2023-03-12T18:34:37.560Z,100136.38
2023-03-12T18:37:38.975Z,100134.06
2023-03-12T18:40:40.405Z,100123.88
2023-03-12T18:43:42.134Z,100129.34
2023-03-12T18:46:43.666Z,100132.34
2023-03-12T18:49:45.368Z,100137.59
2023-03-12T18:52:46.791Z,100139.72
2023-03-12T18:55:56.576Z,100135.44
2023-03-12T18:58:58.000Z,100136.41
2023-03-12T19:02:00.165Z,100133.91
2023-03-12T19:05:03.878Z,100130.78
2023-03-12T19:08:06.014Z,100141.47
2023-03-12T19:11:10.383Z,100132.78
2023-03-12T19:14:12.331Z,100138.25
2023-03-12T19:17:13.756Z,100137.56
2023-03-12T19:20:15.654Z,100142.84
2023-03-12T19:23:17.076Z,100143.78
2023-03-12T19:26:18.470Z,100139.56
2023-03-12T19:29:21.357Z,100152.97
2023-03-12T19:32:25.405Z,100152.09
2023-03-12T19:35:29.287Z,100154.78
2023-03-12T19:38:30.878Z,100146.84
2023-03-12T19:41:32.250Z,100152.91
2023-03-12T19:44:36.145Z,100148.56
2023-03-12T19:47:37.791Z,100149.41
2023-03-12T19:50:39.227Z,100152.09
2023-03-12T19:53:40.846Z,100149.53
2023-03-12T19:56:42.227Z,100155.75
2023-03-12T19:59:43.615Z,100146.97
2023-03-12T20:02:46.045Z,100161.97
2023-03-12T20:05:47.609Z,100160.25
2023-03-12T20:08:49.159Z,100152.25
2023-03-12T20:11:50.583Z,100156.59
2023-03-12T20:14:51.978Z,100153.09
2023-03-12T20:17:59.463Z,100146.84
2023-03-12T20:21:01.079Z,100160.06
2023-03-12T20:24:02.678Z,100148.69
2023-03-12T20:27:04.439Z,100145.06
2023-03-12T20:30:06.531Z,100150.38
2023-03-12T20:33:08.361Z,100146.84
2023-03-12T20:36:12.424Z,100144.09
2023-03-12T20:39:13.981Z,100132.47
2023-03-12T20:42:15.383Z,100134.13
2023-03-12T20:45:16.880Z,100132.28
2023-03-12T20:48:18.542Z,100132.13
2023-03-12T20:51:20.015Z,100128.63
2023-03-12T20:54:21.668Z,100133.47
2023-03-12T20:57:23.056Z,100129.19
2023-03-12T21:00:24.578Z,100127.19
2023-03-12T21:03:25.986Z,100125.41
2023-03-12T21:06:27.903Z,100122.63
2023-03-12T21:09:29.290Z,100121.78
2023-03-12T21:12:30.747Z,100116.50
2023-03-12T21:15:32.159Z,100114.25
2023-03-12T21:18:33.655Z,100107.19
2023-03-12T21:21:36.345Z,100108.09
2023-03-12T21:24:37.888Z,100120.66
2023-03-12T21:27:49.977Z,100116.19
2023-03-12T21:30:52.339Z,100119.16
2023-03-12T21:33:57.880Z,100114.97
2023-03-12T21:36:59.362Z,100119.56
2023-03-12T21:40:01.452Z,100117.84
2023-03-12T21:43:03.374Z,100122.34
2023-03-12T21:46:06.918Z,100106.41
2023-03-12T21:49:08.485Z,100107.34
2023-03-12T21:52:10.011Z,100096.00
2023-03-12T21:55:11.416Z,100094.13
2023-03-12T21:58:12.868Z,100084.44
2023-03-12T22:01:16.837Z,100086.03
2023-03-12T22:04:18.418Z,100096.09
2023-03-12T22:07:19.881Z,100092.78
2023-03-12T22:10:21.254Z,100086.00
2023-03-12T22:13:23.070Z,100079.22
2023-03-12T22:16:24.568Z,100072.38
2023-03-12T22:19:26.108Z,100069.06
2023-03-12T22:22:27.566Z,100062.22
2023-03-12T22:25:29.014Z,100052.03
2023-03-12T22:28:31.798Z,100050.34
2023-03-12T22:31:33.554Z,100042.72
2023-03-12T22:34:35.182Z,100042.09
2023-03-12T22:37:36.578Z,100045.75
2023-03-12T22:40:38.289Z,100050.31
2023-03-12T22:43:39.766Z,100052.94
2023-03-12T22:46:41.230Z,100061.88
2023-03-12T22:49:42.678Z,100056.81
2023-03-12T22:52:44.058Z,100057.78
2023-03-12T22:55:45.445Z,100055.31
2023-03-12T22:58:47.636Z,100045.81
2023-03-12T23:01:49.077Z,100038.00
2023-03-12T23:04:50.526Z,100035.28
2023-03-12T23:07:52.015Z,100028.50
2023-03-12T23:10:58.622Z,100029.13
2023-03-12T23:14:00.043Z,100024.75
2023-03-12T23:17:01.518Z,100018.81
2023-03-12T23:20:04.777Z,100029.41
2023-03-12T23:23:06.292Z,100024.16
2023-03-12T23:26:08.275Z,100014.63
2023-03-12T23:29:12.689Z,100015.69
2023-03-12T23:32:14.186Z,100010.59
2023-03-12T23:35:15.800Z,100011.56
2023-03-12T23:38:17.261Z,100011.59
2023-03-12T23:41:24.611Z,100012.56
2023-03-12T23:44:26.170Z,100002.06
2023-03-12T23:47:27.616Z,100005.59
2023-03-12T23:50:29.024Z,99999.84
2023-03-12T23:53:30.649Z,100001.78
2023-03-12T23:56:35.847Z,100006.22
2023-03-12T23:59:37.236Z,99992.19
